sensor_id;sensor_type;location;lat;lon;timestamp;pressure;altitude;pressure_sealevel;temperature;humidity
60041;BME280;60036;53.468;-2.266;2022-09-02T00:00:18;101589.85;;;20.26;25.59
60041;BME280;60036;53.468;-2.266;2022-09-02T00:02:43;101581.74;;;20.73;25.17
60041;BME280;60036;53.468;-2.266;2022-09-02T00:05:08;101577.71;;;20.76;25.06
60041;BME280;60036;53.468;-2.266;2022-09-02T00:07:33;101575.62;;;20.66;25.18
60041;BME280;60036;53.468;-2.266;2022-09-02T00:09:58;101571.15;;;20.77;25.52
60041;BME280;60036;53.468;-2.266;2022-09-02T00:12:24;101568.18;;;20.46;25.41
60041;BME280;60036;53.468;-2.266;2022-09-02T00:14:49;101565.09;;;20.58;25.42
60041;BME280;60036;53.468;-2.266;2022-09-02T00:17:19;101565.05;;;20.62;25.16
60041;BME280;60036;53.468;-2.266;2022-09-02T00:19:39;101562.02;;;20.63;25.40
60041;BME280;60036;53.468;-2.266;2022-09-02T00:22:04;101567.21;;;20.65;25.40
60041;BME280;60036;53.468;-2.266;2022-09-02T00:24:30;101562.04;;;20.37;25.62
60041;BME280;60036;53.468;-2.266;2022-09-02T00:26:55;101564.54;;;20.15;25.47
60041;BME280;60036;53.468;-2.266;2022-09-02T00:29:20;101561.92;;;20.95;25.37
60041;BME280;60036;53.468;-2.266;2022-09-02T00:31:46;101562.35;;;20.58;25.44
60041;BME280;60036;53.468;-2.266;2022-09-02T00:34:11;101563.68;;;20.54;25.61
60041;BME280;60036;53.468;-2.266;2022-09-02T00:36:35;101559.12;;;20.05;25.73
60041;BME280;60036;53.468;-2.266;2022-09-02T00:39:02;101553.10;;;20.37;25.49
60041;BME280;60036;53.468;-2.266;2022-09-02T00:41:28;101557.91;;;20.50;25.49
60041;BME280;60036;53.468;-2.266;2022-09-02T00:43:53;101556.21;;;20.10;25.76
60041;BME280;60036;53.468;-2.266;2022-09-02T00:46:19;101557.43;;;20.47;25.80
60041;BME280;60036;53.468;-2.266;2022-09-02T00:48:45;101553.79;;;20.52;25.80
60041;BME280;60036;53.468;-2.266;2022-09-02T00:51:07;101549.12;;;20.44;25.66
60041;BME280;60036;53.468;-2.266;2022-09-02T00:53:32;101546.70;;;20.71;25.33
60041;BME280;60036;53.468;-2.266;2022-09-02T00:55:58;101543.27;;;20.36;25.79
60041;BME280;60036;53.468;-2.266;2022-09-02T00:58:26;101541.91;;;20.68;25.69
60041;BME280;60036;53.468;-2.266;2022-09-02T01:00:50;101538.91;;;20.81;25.33
60041;BME280;60036;53.468;-2.266;2022-09-02T01:03:15;101533.57;;;20.61;25.38
60041;BME280;60036;53.468;-2.266;2022-09-02T01:05:42;101532.10;;;20.06;25.66
60041;BME280;60036;53.468;-2.266;2022-09-02T01:08:25;101531.04;;;21.05;25.34
60041;BME280;60036;53.468;-2.266;2022-09-02T01:10:47;101532.96;;;20.43;25.35
60041;BME280;60036;53.468;-2.266;2022-09-02T01:13:13;101530.47;;;20.69;25.42
60041;BME280;60036;53.468;-2.266;2022-09-02T01:15:38;101527.46;;;20.32;25.80
60041;BME280;60036;53.468;-2.266;2022-09-02T01:18:03;101523.47;;;20.28;25.46
60041;BME280;60036;53.468;-2.266;2022-09-02T01:20:27;101521.45;;;20.99;25.25
60041;BME280;60036;53.468;-2.266;2022-09-02T01:22:52;101519.65;;;20.42;25.33
60041;BME280;60036;53.468;-2.266;2022-09-02T01:25:25;101517.38;;;20.60;25.46
60041;BME280;60036;53.468;-2.266;2022-09-02T01:27:43;101512.22;;;20.86;25.52
60041;BME280;60036;53.468;-2.266;2022-09-02T01:30:10;101510.90;;;20.72;25.33
60041;BME280;60036;53.468;-2.266;2022-09-02T01:32:32;101507.40;;;20.86;25.40
60041;BME280;60036;53.468;-2.266;2022-09-02T01:34:58;101503.10;;;20.22;25.85
60041;BME280;60036;53.468;-2.266;2022-09-02T01:37:23;101494.77;;;20.80;25.52
60041;BME280;60036;53.468;-2.266;2022-09-02T01:39:48;101494.82;;;20.75;25.38
60041;BME280;60036;53.468;-2.266;2022-09-02T01:42:14;101493.06;;;20.97;25.30
60041;BME280;60036;53.468;-2.266;2022-09-02T01:44:38;101493.02;;;20.55;25.42
60041;BME280;60036;53.468;-2.266;2022-09-02T01:47:03;101485.28;;;20.54;25.55
60041;BME280;60036;53.468;-2.266;2022-09-02T01:49:29;101489.06;;;20.58;25.56
60041;BME280;60036;53.468;-2.266;2022-09-02T01:51:55;101494.32;;;20.68;25.34
60041;BME280;60036;53.468;-2.266;2022-09-02T01:54:19;101493.81;;;20.65;25.40
60041;BME280;60036;53.468;-2.266;2022-09-02T01:56:44;101491.81;;;20.84;25.54
60041;BME280;60036;53.468;-2.266;2022-09-02T01:59:09;101485.16;;;20.51;25.25
60041;BME280;60036;53.468;-2.266;2022-09-02T02:01:34;101480.91;;;20.68;25.41
60041;BME280;60036;53.468;-2.266;2022-09-02T02:04:00;101476.95;;;20.66;25.40
60041;BME280;60036;53.468;-2.266;2022-09-02T02:06:25;101468.92;;;20.85;25.30
60041;BME280;60036;53.468;-2.266;2022-09-02T02:08:50;101472.07;;;20.28;25.48
60041;BME280;60036;53.468;-2.266;2022-09-02T02:11:18;101465.77;;;20.19;25.48
60041;BME280;60036;53.468;-2.266;2022-09-02T02:13:40;101460.62;;;20.66;25.31
60041;BME280;60036;53.468;-2.266;2022-09-02T02:16:06;101460.04;;;20.69;25.31
60041;BME280;60036;53.468;-2.266;2022-09-02T02:18:31;101457.44;;;20.67;25.28
60041;BME280;60036;53.468;-2.266;2022-09-02T02:20:56;101457.25;;;20.30;25.72
60041;BME280;60036;53.468;-2.266;2022-09-02T02:23:21;101458.34;;;20.52;25.57
60041;BME280;60036;53.468;-2.266;2022-09-02T02:25:46;101454.53;;;20.79;25.42
60041;BME280;60036;53.468;-2.266;2022-09-02T02:28:11;101451.99;;;20.45;25.34
60041;BME280;60036;53.468;-2.266;2022-09-02T02:30:37;101447.79;;;20.70;25.30
60041;BME280;60036;53.468;-2.266;2022-09-02T02:33:02;101443.71;;;20.87;25.33
60041;BME280;60036;53.468;-2.266;2022-09-02T02:35:27;101444.38;;;20.48;25.44
60041;BME280;60036;53.468;-2.266;2022-09-02T02:37:53;101442.38;;;20.39;25.60
60041;BME280;60036;53.468;-2.266;2022-09-02T02:40:21;101443.37;;;20.55;25.40
60041;BME280;60036;53.468;-2.266;2022-09-02T02:42:43;101443.56;;;20.50;25.50
60041;BME280;60036;53.468;-2.266;2022-09-02T02:45:09;101441.99;;;20.27;25.41
60041;BME280;60036;53.468;-2.266;2022-09-02T02:47:34;101444.68;;;20.32;25.47
60041;BME280;60036;53.468;-2.266;2022-09-02T02:49:59;101444.91;;;20.48;25.58
60041;BME280;60036;53.468;-2.266;2022-09-02T02:52:24;101438.90;;;20.26;25.64
60041;BME280;60036;53.468;-2.266;2022-09-02T02:54:49;101434.01;;;20.61;25.38
60041;BME280;60036;53.468;-2.266;2022-09-02T02:57:15;101429.78;;;20.41;25.36
60041;BME280;60036;53.468;-2.266;2022-09-02T02:59:40;101428.29;;;20.03;25.59
60041;BME280;60036;53.468;-2.266;2022-09-02T03:02:05;101427.97;;;20.58;25.30
60041;BME280;60036;53.468;-2.266;2022-09-02T03:04:30;101424.09;;;20.63;25.31
60041;BME280;60036;53.468;-2.266;2022-09-02T03:06:55;101425.55;;;20.35;25.41
60041;BME280;60036;53.468;-2.266;2022-09-02T03:09:21;101424.02;;;20.14;25.29
60041;BME280;60036;53.468;-2.266;2022-09-02T03:11:46;101421.04;;;20.16;25.72
60041;BME280;60036;53.468;-2.266;2022-09-02T03:14:11;101420.49;;;20.06;25.63
60041;BME280;60036;53.468;-2.266;2022-09-02T03:16:36;101417.54;;;20.56;25.34
60041;BME280;60036;53.468;-2.266;2022-09-02T03:19:02;101416.35;;;20.56;25.43
60041;BME280;60036;53.468;-2.266;2022-09-02T03:21:26;101413.66;;;20.09;25.84
60041;BME280;60036;53.468;-2.266;2022-09-02T03:23:52;101411.82;;;20.27;25.63
60041;BME280;60036;53.468;-2.266;2022-09-02T03:26:19;101412.65;;;20.13;25.65
60041;BME280;60036;53.468;-2.266;2022-09-02T03:28:42;101411.99;;;20.28;25.57
60041;BME280;60036;53.468;-2.266;2022-09-02T03:31:13;101415.29;;;19.84;25.67
60041;BME280;60036;53.468;-2.266;2022-09-02T03:33:32;101410.36;;;20.25;25.65
60041;BME280;60036;53.468;-2.266;2022-09-02T03:35:57;101409.92;;;19.97;25.65
60041;BME280;60036;53.468;-2.266;2022-09-02T03:38:24;101407.74;;;20.33;25.55
60041;BME280;60036;53.468;-2.266;2022-09-02T03:40:48;101406.08;;;20.02;25.76
60041;BME280;60036;53.468;-2.266;2022-09-02T03:43:13;101406.47;;;20.20;25.63
60041;BME280;60036;53.468;-2.266;2022-09-02T03:45:38;101407.84;;;20.30;25.48
60041;BME280;60036;53.468;-2.266;2022-09-02T03:48:03;101406.15;;;20.38;25.47
60041;BME280;60036;53.468;-2.266;2022-09-02T03:50:31;101403.55;;;20.07;25.37
60041;BME280;60036;53.468;-2.266;2022-09-02T03:52:54;101400.89;;;20.09;25.79
60041;BME280;60036;53.468;-2.266;2022-09-02T03:55:19;101403.99;;;20.06;25.65
60041;BME280;60036;53.468;-2.266;2022-09-02T03:57:44;101400.70;;;20.24;25.58
60041;BME280;60036;53.468;-2.266;2022-09-02T04:00:11;101396.16;;;20.40;25.50
60041;BME280;60036;53.468;-2.266;2022-09-02T04:02:35;101393.92;;;20.35;25.54
60041;BME280;60036;53.468;-2.266;2022-09-02T04:04:59;101393.53;;;20.27;25.66
60041;BME280;60036;53.468;-2.266;2022-09-02T04:07:25;101388.36;;;20.42;25.48
60041;BME280;60036;53.468;-2.266;2022-09-02T04:09:50;101387.37;;;20.07;25.68
60041;BME280;60036;53.468;-2.266;2022-09-02T04:12:15;101384.38;;;20.09;25.70
60041;BME280;60036;53.468;-2.266;2022-09-02T04:14:40;101380.25;;;19.99;25.93
60041;BME280;60036;53.468;-2.266;2022-09-02T04:17:05;101378.93;;;20.41;25.57
60041;BME280;60036;53.468;-2.266;2022-09-02T04:19:31;101377.07;;;20.31;25.60
60041;BME280;60036;53.468;-2.266;2022-09-02T04:21:57;101373.79;;;20.13;25.73
60041;BME280;60036;53.468;-2.266;2022-09-02T04:24:21;101374.40;;;20.28;25.73
60041;BME280;60036;53.468;-2.266;2022-09-02T04:26:46;101370.19;;;20.09;25.70
60041;BME280;60036;53.468;-2.266;2022-09-02T04:29:12;101370.79;;;20.39;25.52
60041;BME280;60036;53.468;-2.266;2022-09-02T04:31:36;101373.31;;;20.26;25.69
60041;BME280;60036;53.468;-2.266;2022-09-02T04:34:02;101373.92;;;20.42;25.48
60041;BME280;60036;53.468;-2.266;2022-09-02T04:36:28;101374.40;;;20.32;25.49
60041;BME280;60036;53.468;-2.266;2022-09-02T04:38:53;101372.07;;;19.79;25.69
60041;BME280;60036;53.468;-2.266;2022-09-02T04:41:20;101373.27;;;20.06;25.67
60041;BME280;60036;53.468;-2.266;2022-09-02T04:43:43;101371.11;;;20.12;25.57
60041;BME280;60036;53.468;-2.266;2022-09-02T04:46:11;101372.58;;;20.05;25.48
60041;BME280;60036;53.468;-2.266;2022-09-02T04:48:34;101370.58;;;20.25;25.48
60041;BME280;60036;53.468;-2.266;2022-09-02T04:51:03;101367.78;;;20.30;25.50
60041;BME280;60036;53.468;-2.266;2022-09-02T04:53:24;101368.87;;;20.14;25.48
60041;BME280;60036;53.468;-2.266;2022-09-02T04:55:49;101365.35;;;20.12;25.41
60041;BME280;60036;53.468;-2.266;2022-09-02T04:58:14;101365.29;;;20.36;25.39
60041;BME280;60036;53.468;-2.266;2022-09-02T05:00:39;101361.23;;;20.13;25.48
60041;BME280;60036;53.468;-2.266;2022-09-02T05:03:04;101361.19;;;19.70;25.70
60041;BME280;60036;53.468;-2.266;2022-09-02T05:05:29;101361.53;;;20.28;25.50
60041;BME280;60036;53.468;-2.266;2022-09-02T05:07:55;101358.92;;;20.31;25.47
60041;BME280;60036;53.468;-2.266;2022-09-02T05:10:20;101360.57;;;20.11;25.39
60041;BME280;60036;53.468;-2.266;2022-09-02T05:12:45;101363.47;;;20.53;25.28
60041;BME280;60036;53.468;-2.266;2022-09-02T05:15:11;101359.32;;;19.75;25.67
60041;BME280;60036;53.468;-2.266;2022-09-02T05:17:35;101359.08;;;20.54;25.44
60041;BME280;60036;53.468;-2.266;2022-09-02T05:20:02;101360.62;;;20.24;25.44
60041;BME280;60036;53.468;-2.266;2022-09-02T05:22:26;101356.31;;;20.29;25.47
60041;BME280;60036;53.468;-2.266;2022-09-02T05:24:51;101355.54;;;20.10;25.60
60041;BME280;60036;53.468;-2.266;2022-09-02T05:27:16;101358.12;;;20.43;25.40
60041;BME280;60036;53.468;-2.266;2022-09-02T05:29:41;101353.12;;;19.96;25.54
60041;BME280;60036;53.468;-2.266;2022-09-02T05:32:07;101356.54;;;20.25;25.53
60041;BME280;60036;53.468;-2.266;2022-09-02T05:34:32;101354.26;;;19.79;25.60
60041;BME280;60036;53.468;-2.266;2022-09-02T05:36:57;101354.70;;;19.96;25.58
60041;BME280;60036;53.468;-2.266;2022-09-02T05:39:22;101352.77;;;20.11;25.50
60041;BME280;60036;53.468;-2.266;2022-09-02T05:41:47;101354.17;;;20.18;25.50
60041;BME280;60036;53.468;-2.266;2022-09-02T05:44:12;101354.70;;;20.11;25.60
60041;BME280;60036;53.468;-2.266;2022-09-02T05:46:37;101353.63;;;20.08;25.58
60041;BME280;60036;53.468;-2.266;2022-09-02T05:49:04;101354.92;;;20.29;25.52
60041;BME280;60036;53.468;-2.266;2022-09-02T05:51:28;101352.84;;;20.04;25.50
60041;BME280;60036;53.468;-2.266;2022-09-02T05:53:54;101356.04;;;20.35;25.50
60041;BME280;60036;53.468;-2.266;2022-09-02T05:56:18;101352.02;;;20.23;25.49
60041;BME280;60036;53.468;-2.266;2022-09-02T05:58:44;101352.84;;;20.17;25.52
60041;BME280;60036;53.468;-2.266;2022-09-02T06:01:11;101349.01;;;20.44;25.35
60041;BME280;60036;53.468;-2.266;2022-09-02T06:03:35;101346.76;;;20.06;25.49
60041;BME280;60036;53.468;-2.266;2022-09-02T06:06:00;101349.94;;;20.01;25.54
60041;BME280;60036;53.468;-2.266;2022-09-02T06:08:25;101349.85;;;20.24;25.41
60041;BME280;60036;53.468;-2.266;2022-09-02T06:10:50;101346.70;;;19.99;25.46
60041;BME280;60036;53.468;-2.266;2022-09-02T06:13:16;101346.31;;;19.91;25.52
60041;BME280;60036;53.468;-2.266;2022-09-02T06:15:41;101346.34;;;20.02;25.41
60041;BME280;60036;53.468;-2.266;2022-09-02T06:18:06;101343.70;;;20.32;25.42
60041;BME280;60036;53.468;-2.266;2022-09-02T06:20:32;101342.16;;;20.04;25.53
60041;BME280;60036;53.468;-2.266;2022-09-02T06:22:57;101340.08;;;19.91;25.59
60041;BME280;60036;53.468;-2.266;2022-09-02T06:25:23;101339.79;;;20.00;25.51
60041;BME280;60036;53.468;-2.266;2022-09-02T06:27:47;101335.94;;;20.05;25.61
60041;BME280;60036;53.468;-2.266;2022-09-02T06:30:12;101332.38;;;20.11;25.57
60041;BME280;60036;53.468;-2.266;2022-09-02T06:32:38;101336.29;;;20.20;25.47
60041;BME280;60036;53.468;-2.266;2022-09-02T06:35:03;101331.85;;;20.17;25.58
60041;BME280;60036;53.468;-2.266;2022-09-02T06:37:28;101330.34;;;20.39;25.43
60041;BME280;60036;53.468;-2.266;2022-09-02T06:39:54;101328.26;;;20.21;25.41
60041;BME280;60036;53.468;-2.266;2022-09-02T06:42:19;101323.15;;;20.14;25.57
60041;BME280;60036;53.468;-2.266;2022-09-02T06:45:24;101324.84;;;20.61;25.47
60041;BME280;60036;53.468;-2.266;2022-09-02T06:47:40;101321.12;;;19.88;25.68
60041;BME280;60036;53.468;-2.266;2022-09-02T06:50:06;101315.91;;;20.26;25.55
60041;BME280;60036;53.468;-2.266;2022-09-02T06:52:30;101313.28;;;20.24;25.52
60041;BME280;60036;53.468;-2.266;2022-09-02T06:54:55;101312.76;;;19.95;25.88
60041;BME280;60036;53.468;-2.266;2022-09-02T06:57:21;101313.24;;;20.29;25.99
60041;BME280;60036;53.468;-2.266;2022-09-02T06:59:46;101309.77;;;20.00;25.79
60041;BME280;60036;53.468;-2.266;2022-09-02T07:02:11;101311.03;;;20.02;25.92
60041;BME280;60036;53.468;-2.266;2022-09-02T07:04:36;101306.46;;;20.00;25.88
60041;BME280;60036;53.468;-2.266;2022-09-02T07:07:03;101303.77;;;20.01;25.61
60041;BME280;60036;53.468;-2.266;2022-09-02T07:09:27;101309.56;;;20.22;25.83
60041;BME280;60036;53.468;-2.266;2022-09-02T07:11:51;101295.55;;;19.85;25.99
60041;BME280;60036;53.468;-2.266;2022-09-02T07:14:19;101295.40;;;20.25;25.66
60041;BME280;60036;53.468;-2.266;2022-09-02T07:16:45;101294.30;;;20.07;25.85
60041;BME280;60036;53.468;-2.266;2022-09-02T07:19:07;101293.56;;;20.62;25.92
60041;BME280;60036;53.468;-2.266;2022-09-02T07:21:37;101291.96;;;20.00;25.94
60041;BME280;60036;53.468;-2.266;2022-09-02T07:23:58;101289.82;;;19.98;25.96
60041;BME280;60036;53.468;-2.266;2022-09-02T07:26:24;101284.59;;;20.18;26.10
60041;BME280;60036;53.468;-2.266;2022-09-02T07:28:48;101284.78;;;20.44;25.74
60041;BME280;60036;53.468;-2.266;2022-09-02T07:31:14;101283.98;;;20.41;25.77
60041;BME280;60036;53.468;-2.266;2022-09-02T07:33:39;101279.13;;;20.38;26.00
60041;BME280;60036;53.468;-2.266;2022-09-02T07:36:04;101278.21;;;20.07;25.85
60041;BME280;60036;53.468;-2.266;2022-09-02T07:38:28;101276.87;;;20.34;25.88
60041;BME280;60036;53.468;-2.266;2022-09-02T07:40:53;101275.68;;;20.28;25.79
60041;BME280;60036;53.468;-2.266;2022-09-02T07:43:19;101273.04;;;20.01;26.09
60041;BME280;60036;53.468;-2.266;2022-09-02T07:45:44;101275.12;;;20.45;26.03
60041;BME280;60036;53.468;-2.266;2022-09-02T07:48:09;101272.46;;;20.12;25.98
60041;BME280;60036;53.468;-2.266;2022-09-02T07:50:35;101271.00;;;20.49;25.91
60041;BME280;60036;53.468;-2.266;2022-09-02T07:52:59;101271.11;;;20.23;26.07
60041;BME280;60036;53.468;-2.266;2022-09-02T07:55:25;101273.80;;;20.43;25.74
60041;BME280;60036;53.468;-2.266;2022-09-02T07:57:51;101269.64;;;19.96;25.88
60041;BME280;60036;53.468;-2.266;2022-09-02T08:00:17;101274.25;;;20.41;25.94
60041;BME280;60036;53.468;-2.266;2022-09-02T08:02:41;101276.07;;;20.29;25.86
60041;BME280;60036;53.468;-2.266;2022-09-02T08:05:06;101275.20;;;19.98;25.82
60041;BME280;60036;53.468;-2.266;2022-09-02T08:07:31;101271.02;;;20.03;25.86
60041;BME280;60036;53.468;-2.266;2022-09-02T08:10:04;101272.14;;;20.14;25.71
60041;BME280;60036;53.468;-2.266;2022-09-02T08:12:21;101275.49;;;20.00;25.80
60041;BME280;60036;53.468;-2.266;2022-09-02T08:14:46;101275.21;;;19.63;26.10
60041;BME280;60036;53.468;-2.266;2022-09-02T08:17:12;101277.70;;;19.46;26.21
60041;BME280;60036;53.468;-2.266;2022-09-02T08:19:37;101276.32;;;19.10;26.18
60041;BME280;60036;53.468;-2.266;2022-09-02T08:22:02;101283.55;;;19.16;26.08
60041;BME280;60036;53.468;-2.266;2022-09-02T08:24:29;101269.78;;;19.12;26.15
60041;BME280;60036;53.468;-2.266;2022-09-02T08:26:52;101269.39;;;19.15;26.38
60041;BME280;60036;53.468;-2.266;2022-09-02T08:29:28;101279.32;;;19.53;26.57
60041;BME280;60036;53.468;-2.266;2022-09-02T08:31:43;101264.09;;;19.40;26.34
60041;BME280;60036;53.468;-2.266;2022-09-02T08:34:08;101259.58;;;19.21;26.54
60041;BME280;60036;53.468;-2.266;2022-09-02T08:36:33;101259.30;;;19.38;26.24
60041;BME280;60036;53.468;-2.266;2022-09-02T08:39:01;101262.00;;;19.54;26.30
60041;BME280;60036;53.468;-2.266;2022-09-02T08:41:27;101263.21;;;19.49;26.30
60041;BME280;60036;53.468;-2.266;2022-09-02T08:43:51;101257.87;;;19.43;26.54
60041;BME280;60036;53.468;-2.266;2022-09-02T08:46:16;101268.70;;;20.02;25.99
60041;BME280;60036;53.468;-2.266;2022-09-02T08:48:44;101263.42;;;19.60;26.32
60041;BME280;60036;53.468;-2.266;2022-09-02T08:51:09;101263.77;;;19.41;26.18
60041;BME280;60036;53.468;-2.266;2022-09-02T08:53:34;101268.16;;;19.77;26.08
60041;BME280;60036;53.468;-2.266;2022-09-02T08:55:58;101267.28;;;19.80;26.06
60041;BME280;60036;53.468;-2.266;2022-09-02T08:58:24;101257.92;;;20.06;26.28
60041;BME280;60036;53.468;-2.266;2022-09-02T09:00:56;101251.43;;;19.86;26.02
60041;BME280;60036;53.468;-2.266;2022-09-02T09:03:18;101254.24;;;19.94;26.02
60041;BME280;60036;53.468;-2.266;2022-09-02T09:05:41;101242.01;;;20.10;25.92
60041;BME280;60036;53.468;-2.266;2022-09-02T09:08:07;101235.80;;;20.18;25.81
60041;BME280;60036;53.468;-2.266;2022-09-02T09:10:31;101245.50;;;20.04;25.80
60041;BME280;60036;53.468;-2.266;2022-09-02T09:13:02;101237.42;;;19.81;25.71
60041;BME280;60036;53.468;-2.266;2022-09-02T09:15:24;101241.33;;;20.13;25.95
60041;BME280;60036;53.468;-2.266;2022-09-02T09:17:46;101235.25;;;20.19;26.00
60041;BME280;60036;53.468;-2.266;2022-09-02T09:20:16;101236.43;;;20.17;25.80
60041;BME280;60036;53.468;-2.266;2022-09-02T09:22:36;101227.77;;;20.62;25.89
60041;BME280;60036;53.468;-2.266;2022-09-02T09:24:59;101228.18;;;20.32;25.79
60041;BME280;60036;53.468;-2.266;2022-09-02T09:27:24;101224.09;;;20.47;25.67
60041;BME280;60036;53.468;-2.266;2022-09-02T09:29:50;101225.77;;;20.39;25.53
60041;BME280;60036;53.468;-2.266;2022-09-02T09:32:22;101217.52;;;20.11;25.58
60041;BME280;60036;53.468;-2.266;2022-09-02T09:34:55;101220.19;;;19.96;25.72
60041;BME280;60036;53.468;-2.266;2022-09-02T09:37:05;101221.44;;;19.51;26.41
60041;BME280;60036;53.468;-2.266;2022-09-02T09:39:31;101222.81;;;20.14;25.77
60041;BME280;60036;53.468;-2.266;2022-09-02T09:41:57;101213.56;;;20.55;25.81
60041;BME280;60036;53.468;-2.266;2022-09-02T09:44:40;101212.86;;;20.52;25.51
60041;BME280;60036;53.468;-2.266;2022-09-02T09:46:46;101207.39;;;20.28;25.65
60041;BME280;60036;53.468;-2.266;2022-09-02T09:49:24;101212.38;;;20.45;25.53
60041;BME280;60036;53.468;-2.266;2022-09-02T09:51:36;101208.73;;;20.47;25.62
60041;BME280;60036;53.468;-2.266;2022-09-02T09:54:14;101207.63;;;20.37;25.93
60041;BME280;60036;53.468;-2.266;2022-09-02T09:56:29;101206.07;;;20.31;25.50
60041;BME280;60036;53.468;-2.266;2022-09-02T09:58:52;101208.12;;;20.12;25.59
60041;BME280;60036;53.468;-2.266;2022-09-02T10:01:18;101201.73;;;20.08;25.60
60041;BME280;60036;53.468;-2.266;2022-09-02T10:03:47;101203.47;;;20.04;25.63
60041;BME280;60036;53.468;-2.266;2022-09-02T10:06:17;101194.42;;;19.84;25.55
60041;BME280;60036;53.468;-2.266;2022-09-02T10:08:32;101194.73;;;20.07;25.56
60041;BME280;60036;53.468;-2.266;2022-09-02T10:11:00;101190.95;;;19.84;25.57
60041;BME280;60036;53.468;-2.266;2022-09-02T10:13:25;101185.93;;;19.84;25.56
60041;BME280;60036;53.468;-2.266;2022-09-02T10:15:58;101180.20;;;20.12;25.57
60041;BME280;60036;53.468;-2.266;2022-09-02T10:18:21;101173.85;;;19.89;25.61
60041;BME280;60036;53.468;-2.266;2022-09-02T10:20:44;101172.08;;;20.09;25.57
60041;BME280;60036;53.468;-2.266;2022-09-02T10:23:10;101172.73;;;19.93;25.58
60041;BME280;60036;53.468;-2.266;2022-09-02T10:25:34;101171.93;;;19.74;25.62
60041;BME280;60036;53.468;-2.266;2022-09-02T10:27:58;101171.80;;;19.94;25.63
60041;BME280;60036;53.468;-2.266;2022-09-02T10:30:20;101166.51;;;20.36;25.56
60041;BME280;60036;53.468;-2.266;2022-09-02T10:32:54;101166.94;;;20.42;25.53
60041;BME280;60036;53.468;-2.266;2022-09-02T10:35:12;101163.91;;;20.40;25.60
60041;BME280;60036;53.468;-2.266;2022-09-02T10:37:42;101158.72;;;20.23;25.52
60041;BME280;60036;53.468;-2.266;2022-09-02T10:40:08;101157.04;;;20.04;26.07
60041;BME280;60036;53.468;-2.266;2022-09-02T10:42:31;101154.39;;;20.25;26.21
60041;BME280;60036;53.468;-2.266;2022-09-02T10:44:59;101145.15;;;20.37;25.33
60041;BME280;60036;53.468;-2.266;2022-09-02T10:47:20;101142.57;;;20.33;25.15
60041;BME280;60036;53.468;-2.266;2022-09-02T10:49:52;101142.00;;;20.35;25.14
60041;BME280;60036;53.468;-2.266;2022-09-02T10:52:11;101136.02;;;20.41;24.98
60041;BME280;60036;53.468;-2.266;2022-09-02T10:54:39;101137.13;;;20.19;25.03
60041;BME280;60036;53.468;-2.266;2022-09-02T10:57:01;101134.88;;;20.37;25.05
60041;BME280;60036;53.468;-2.266;2022-09-02T10:59:24;101131.56;;;20.38;25.03
60041;BME280;60036;53.468;-2.266;2022-09-02T11:01:51;101126.84;;;20.37;24.98
60041;BME280;60036;53.468;-2.266;2022-09-02T11:04:17;101119.10;;;20.39;24.92
60041;BME280;60036;53.468;-2.266;2022-09-02T11:06:40;101123.96;;;20.28;25.05
60041;BME280;60036;53.468;-2.266;2022-09-02T11:09:08;101119.77;;;20.24;24.85
60041;BME280;60036;53.468;-2.266;2022-09-02T11:11:32;101113.50;;;20.25;24.97
60041;BME280;60036;53.468;-2.266;2022-09-02T11:14:00;101108.53;;;20.14;25.00
60041;BME280;60036;53.468;-2.266;2022-09-02T11:16:21;101108.07;;;20.15;25.01
60041;BME280;60036;53.468;-2.266;2022-09-02T11:18:50;101096.23;;;20.14;24.71
60041;BME280;60036;53.468;-2.266;2022-09-02T11:21:26;101090.85;;;20.14;24.89
60041;BME280;60036;53.468;-2.266;2022-09-02T11:23:40;101085.23;;;20.12;24.85
60041;BME280;60036;53.468;-2.266;2022-09-02T11:26:03;101088.70;;;20.25;24.83
60041;BME280;60036;53.468;-2.266;2022-09-02T11:28:30;101080.32;;;20.43;24.79
60041;BME280;60036;53.468;-2.266;2022-09-02T11:30:54;101078.84;;;20.54;24.79
60041;BME280;60036;53.468;-2.266;2022-09-02T11:33:18;101074.59;;;20.58;24.78
60041;BME280;60036;53.468;-2.266;2022-09-02T11:35:40;101077.76;;;20.44;24.69
60041;BME280;60036;53.468;-2.266;2022-09-02T11:38:15;101072.44;;;20.59;24.73
60041;BME280;60036;53.468;-2.266;2022-09-02T11:40:35;101076.36;;;20.64;24.76
60041;BME280;60036;53.468;-2.266;2022-09-02T11:43:02;101074.64;;;20.73;24.79
60041;BME280;60036;53.468;-2.266;2022-09-02T11:45:31;101068.71;;;20.72;24.71
60041;BME280;60036;53.468;-2.266;2022-09-02T11:47:59;101067.11;;;20.29;24.68
60041;BME280;60036;53.468;-2.266;2022-09-02T11:50:22;101062.89;;;20.53;24.75
60041;BME280;60036;53.468;-2.266;2022-09-02T11:52:49;101056.14;;;20.52;24.73
60041;BME280;60036;53.468;-2.266;2022-09-02T11:55:07;101052.64;;;20.57;24.66
60041;BME280;60036;53.468;-2.266;2022-09-02T11:57:27;101042.22;;;20.54;24.77
60041;BME280;60036;53.468;-2.266;2022-09-02T12:00:24;101047.59;;;20.52;24.78
60041;BME280;60036;53.468;-2.266;2022-09-02T12:02:31;101052.40;;;20.51;24.70
60041;BME280;60036;53.468;-2.266;2022-09-02T12:04:42;101048.07;;;20.72;24.61
60041;BME280;60036;53.468;-2.266;2022-09-02T12:07:27;101044.48;;;20.65;24.67
60041;BME280;60036;53.468;-2.266;2022-09-02T12:09:42;101038.52;;;20.23;24.79
60041;BME280;60036;53.468;-2.266;2022-09-02T12:11:58;101039.26;;;20.81;24.72
60041;BME280;60036;53.468;-2.266;2022-09-02T12:15:01;101032.03;;;20.55;24.77
60041;BME280;60036;53.468;-2.266;2022-09-02T12:16:59;101025.75;;;20.64;24.68
60041;BME280;60036;53.468;-2.266;2022-09-02T12:19:26;101021.35;;;20.90;24.65
60041;BME280;60036;53.468;-2.266;2022-09-02T12:22:25;101023.30;;;20.70;24.65
60041;BME280;60036;53.468;-2.266;2022-09-02T12:24:09;101025.33;;;20.40;24.85
60041;BME280;60036;53.468;-2.266;2022-09-02T12:26:29;101020.22;;;20.59;24.81
60041;BME280;60036;53.468;-2.266;2022-09-02T12:29:10;101009.04;;;20.81;24.69